createdAt,value
2018-04-30T00:02:10.964Z,11.30
2018-04-30T00:04:39.178Z,11.20
2018-04-30T00:07:07.467Z,11.20
2018-04-30T00:09:35.197Z,11.20
2018-04-30T00:12:02.671Z,11.10
2018-04-30T00:14:30.625Z,11.10
2018-04-30T00:16:58.144Z,11.00
2018-04-30T00:19:26.440Z,10.90
2018-04-30T00:21:53.952Z,10.80
2018-04-30T00:24:21.431Z,10.80
2018-04-30T00:26:48.911Z,10.70
2018-04-30T00:31:48.211Z,10.60
2018-04-30T00:34:16.472Z,10.50
2018-04-30T00:36:43.971Z,10.50
2018-04-30T00:39:11.450Z,10.40
2018-04-30T00:41:38.922Z,10.40
2018-04-30T00:44:06.695Z,10.30
2018-04-30T00:46:34.256Z,10.20
2018-04-30T00:49:01.767Z,10.10
2018-04-30T00:51:29.252Z,10.10
2018-04-30T00:53:56.735Z,10.00
2018-04-30T00:56:24.391Z,10.00
2018-04-30T00:58:52.133Z,9.90
2018-04-30T01:01:19.634Z,9.90
2018-04-30T01:03:47.155Z,9.80
2018-04-30T01:06:14.708Z,9.80
2018-04-30T01:08:42.350Z,9.70
2018-04-30T01:11:09.828Z,9.70
2018-04-30T01:13:37.338Z,9.60
2018-04-30T01:16:04.839Z,9.60
2018-04-30T01:18:32.321Z,9.50
2018-04-30T01:21:00.030Z,9.50
2018-04-30T01:23:27.515Z,9.50
2018-04-30T01:25:55.001Z,9.40
2018-04-30T01:28:22.479Z,9.40
2018-04-30T01:30:50.760Z,9.30
2018-04-30T01:33:18.282Z,9.30
2018-04-30T01:35:45.755Z,9.30
2018-04-30T01:38:13.238Z,9.20
2018-04-30T01:40:41.502Z,9.20
2018-04-30T01:43:09.752Z,9.20
2018-04-30T01:45:37.468Z,9.10
2018-04-30T01:48:04.940Z,9.10
2018-04-30T01:50:32.455Z,9.10
2018-04-30T01:52:59.999Z,9.10
2018-04-30T01:55:28.354Z,9.00
2018-04-30T01:57:55.919Z,9.00
2018-04-30T02:00:23.398Z,9.00
2018-04-30T02:02:50.901Z,9.00
2018-04-30T02:05:18.499Z,9.00
2018-04-30T02:07:45.971Z,9.00
2018-04-30T02:10:13.504Z,9.00
2018-04-30T02:12:40.991Z,8.90
2018-04-30T02:15:08.927Z,8.90
2018-04-30T02:17:36.398Z,8.90
2018-04-30T02:22:45.899Z,8.90
2018-04-30T02:25:13.486Z,8.90
2018-04-30T02:27:40.986Z,8.90
2018-04-30T02:30:08.454Z,8.90
2018-04-30T02:32:35.962Z,8.90
2018-04-30T02:35:03.741Z,8.90
2018-04-30T02:37:31.235Z,8.80
2018-04-30T02:39:59.512Z,8.80
2018-04-30T02:42:26.978Z,8.80
2018-04-30T02:44:54.704Z,8.80
2018-04-30T02:47:22.227Z,8.80
2018-04-30T02:49:49.700Z,8.70
2018-04-30T02:52:17.174Z,8.70
2018-04-30T02:54:44.655Z,8.70
2018-04-30T02:57:12.127Z,8.70
2018-04-30T02:59:40.362Z,8.60
2018-04-30T03:02:07.842Z,8.60
2018-04-30T03:04:35.320Z,8.60
2018-04-30T03:07:02.821Z,8.60
2018-04-30T03:09:31.071Z,8.60
2018-04-30T03:11:58.575Z,8.60
2018-04-30T03:14:26.090Z,8.60
2018-04-30T03:16:53.569Z,8.60
2018-04-30T03:19:21.816Z,8.50
2018-04-30T03:21:49.288Z,8.50
2018-04-30T03:24:16.759Z,8.50
2018-04-30T03:26:44.248Z,8.50
2018-04-30T03:29:11.721Z,8.50
2018-04-30T03:31:39.244Z,8.50
2018-04-30T03:34:07.734Z,8.50
2018-04-30T03:36:35.208Z,8.50
2018-04-30T03:39:02.733Z,8.50
2018-04-30T03:41:30.199Z,8.40
2018-04-30T03:43:57.663Z,8.40
2018-04-30T03:46:25.131Z,8.40
2018-04-30T03:48:52.624Z,8.40
2018-04-30T03:54:02.856Z,8.40
2018-04-30T03:56:30.347Z,8.40
2018-04-30T03:58:58.588Z,8.50
2018-04-30T04:01:38.043Z,8.50
2018-04-30T04:04:17.379Z,8.50
2018-04-30T04:06:50.651Z,8.50
2018-04-30T04:09:18.120Z,8.50
2018-04-30T04:11:45.604Z,8.60
2018-04-30T04:14:13.249Z,8.60
2018-04-30T04:16:40.759Z,8.60
2018-04-30T04:19:08.243Z,8.60
2018-04-30T04:21:35.723Z,8.60
2018-04-30T04:24:03.959Z,8.70
2018-04-30T04:26:31.451Z,8.60
2018-04-30T04:28:58.929Z,8.70
2018-04-30T04:31:27.187Z,8.70
2018-04-30T04:33:54.659Z,8.70
2018-04-30T04:36:22.123Z,8.70
2018-04-30T04:38:49.587Z,8.80
2018-04-30T04:41:17.078Z,8.80
2018-04-30T04:43:44.697Z,8.80
2018-04-30T04:46:12.175Z,8.90
2018-04-30T04:48:39.647Z,8.90
2018-04-30T04:51:07.135Z,9.00
2018-04-30T04:53:34.653Z,9.00
2018-04-30T04:56:02.139Z,9.10
2018-04-30T04:58:29.633Z,9.10
2018-04-30T05:00:57.095Z,9.10
2018-04-30T05:03:24.595Z,9.10
2018-04-30T05:05:53.814Z,9.20
2018-04-30T05:08:21.340Z,9.20
2018-04-30T05:10:48.863Z,9.30
2018-04-30T05:13:16.300Z,9.30
2018-04-30T05:15:43.904Z,9.30
2018-04-30T05:18:11.363Z,9.40
2018-04-30T05:20:38.875Z,9.40
2018-04-30T05:23:06.347Z,9.50
2018-04-30T05:25:34.587Z,9.60
2018-04-30T05:28:02.101Z,9.60
2018-04-30T05:30:29.594Z,9.70
2018-04-30T05:32:57.100Z,9.70
2018-04-30T05:35:25.346Z,9.90
2018-04-30T05:37:53.064Z,9.80
2018-04-30T05:40:20.759Z,10.00
2018-04-30T05:42:48.247Z,10.10
2018-04-30T05:45:16.298Z,10.20
2018-04-30T05:47:43.803Z,10.30
2018-04-30T05:50:11.313Z,10.30
2018-04-30T05:52:38.786Z,10.50
2018-04-30T05:55:06.830Z,10.50
2018-04-30T05:57:34.363Z,10.60
2018-04-30T06:00:01.834Z,10.80
2018-04-30T06:02:29.321Z,10.80
2018-04-30T06:04:56.811Z,10.90
2018-04-30T06:07:24.316Z,11.00
2018-04-30T06:09:51.816Z,11.10
2018-04-30T06:12:20.124Z,11.10
2018-04-30T06:14:47.820Z,11.10
2018-04-30T06:17:15.344Z,11.10
2018-04-30T06:19:43.120Z,11.20
2018-04-30T06:22:11.383Z,11.30
2018-04-30T06:24:38.874Z,11.30
2018-04-30T06:27:06.562Z,11.40
2018-04-30T06:29:34.107Z,11.40
2018-04-30T06:32:01.599Z,11.50
2018-04-30T06:34:29.108Z,11.60
2018-04-30T06:36:56.606Z,11.60
2018-04-30T06:39:24.907Z,11.80
2018-04-30T06:41:53.388Z,11.80
2018-04-30T06:44:21.005Z,11.90
2018-04-30T06:46:48.717Z,12.00
2018-04-30T06:49:16.192Z,12.10
2018-04-30T06:51:44.439Z,12.20
2018-04-30T06:54:12.100Z,12.40
2018-04-30T06:56:39.719Z,12.50
2018-04-30T06:59:07.930Z,12.60
2018-04-30T07:01:36.223Z,12.70
2018-04-30T07:04:10.858Z,12.90
2018-04-30T07:06:40.379Z,13.00
2018-04-30T07:09:08.428Z,13.00
2018-04-30T07:11:35.918Z,13.20
2018-04-30T07:14:03.520Z,13.30
2018-04-30T07:16:31.031Z,13.40
2018-04-30T07:18:58.534Z,13.50
2018-04-30T07:21:27.017Z,13.70
2018-04-30T07:24:30.963Z,13.80
2018-04-30T07:26:59.634Z,13.90
2018-04-30T07:31:58.832Z,14.00
2018-04-30T07:34:26.371Z,14.00
2018-04-30T07:36:54.327Z,14.00
2018-04-30T07:39:21.834Z,14.00
2018-04-30T07:41:50.507Z,14.00
2018-04-30T07:45:08.948Z,14.00
2018-04-30T07:47:36.470Z,14.00
2018-04-30T07:50:04.284Z,14.00
2018-04-30T07:52:31.838Z,14.10
2018-04-30T07:54:59.929Z,14.10
2018-04-30T07:57:27.634Z,14.10
2018-04-30T07:59:55.356Z,14.20
2018-04-30T08:02:23.960Z,14.20
2018-04-30T08:04:51.302Z,14.30
2018-04-30T08:09:51.131Z,14.30
2018-04-30T08:12:20.592Z,14.50
2018-04-30T08:14:48.382Z,14.40
2018-04-30T08:17:16.123Z,14.50
2018-04-30T08:19:43.821Z,14.60
2018-04-30T08:22:11.363Z,14.60
2018-04-30T08:24:38.852Z,14.60
2018-04-30T08:27:06.612Z,14.60
2018-04-30T08:29:34.161Z,14.60
2018-04-30T08:32:01.702Z,14.70
2018-04-30T08:34:30.076Z,14.70
2018-04-30T08:36:58.304Z,14.70
2018-04-30T08:39:26.125Z,14.80
2018-04-30T08:41:53.618Z,14.90
2018-04-30T08:45:11.252Z,14.90
2018-04-30T08:47:39.198Z,14.90
2018-04-30T08:50:07.157Z,15.00
2018-04-30T08:52:36.047Z,15.00
2018-04-30T08:58:56.936Z,15.00
2018-04-30T09:01:25.433Z,15.00
2018-04-30T09:03:53.853Z,15.10
2018-04-30T09:06:22.513Z,15.20
2018-04-30T09:08:50.314Z,15.20
2018-04-30T09:11:17.827Z,15.20
2018-04-30T09:13:47.566Z,15.30
2018-04-30T09:16:18.183Z,15.30
2018-04-30T09:18:46.620Z,15.40
2018-04-30T09:26:20.020Z,15.50
2018-04-30T09:28:49.003Z,15.60
2018-04-30T09:31:16.764Z,15.70
2018-04-30T09:33:45.797Z,15.90
2018-04-30T09:36:13.374Z,15.80
2018-04-30T09:38:42.594Z,16.00
2018-04-30T09:43:53.684Z,16.20
2018-04-30T09:46:23.575Z,16.40
2018-04-30T09:48:51.904Z,16.40
2018-04-30T09:51:19.381Z,16.50
2018-04-30T09:53:47.679Z,16.60
2018-04-30T09:56:15.990Z,16.70
2018-04-30T09:58:43.675Z,16.70
2018-04-30T10:01:11.907Z,16.80
2018-04-30T10:06:18.833Z,17.10
2018-04-30T10:08:49.535Z,17.00
2018-04-30T10:11:22.006Z,17.20
2018-04-30T10:13:54.664Z,17.30
2018-04-30T10:18:54.494Z,17.40
2018-04-30T10:24:07.942Z,17.60
2018-04-30T10:29:12.185Z,17.70
2018-04-30T10:31:43.611Z,17.70
2018-04-30T10:34:12.059Z,17.80
2018-04-30T10:36:45.363Z,17.90
2018-04-30T10:39:16.765Z,18.00
2018-04-30T10:41:44.472Z,18.10
2018-04-30T10:44:12.671Z,18.20
2018-04-30T10:49:13.911Z,18.20
2018-04-30T10:56:54.380Z,18.40
2018-04-30T10:59:22.585Z,18.50
2018-04-30T11:09:27.260Z,18.60
2018-04-30T11:11:55.869Z,18.60
2018-04-30T11:14:25.000Z,18.70
2018-04-30T11:16:56.969Z,18.70
2018-04-30T11:19:25.563Z,18.70
2018-04-30T11:21:54.988Z,18.70
2018-04-30T11:24:26.890Z,18.60
2018-04-30T11:26:55.976Z,18.50
2018-04-30T11:29:24.788Z,18.50
2018-04-30T11:31:56.715Z,18.60
2018-04-30T11:36:58.014Z,18.60
2018-04-30T11:39:30.186Z,18.70
2018-04-30T11:41:58.420Z,18.70
2018-04-30T11:47:04.756Z,18.80
2018-04-30T11:49:32.895Z,18.90
2018-04-30T11:52:07.385Z,18.90
2018-04-30T11:57:10.203Z,18.90
2018-04-30T12:04:46.895Z,19.10
2018-04-30T12:12:19.870Z,19.00
2018-04-30T12:17:22.825Z,19.00
2018-04-30T12:19:50.846Z,19.10
2018-04-30T12:22:20.028Z,19.10
2018-04-30T12:24:49.801Z,19.10
2018-04-30T12:27:17.728Z,19.20
2018-04-30T12:32:18.023Z,19.40
2018-04-30T12:34:50.106Z,19.50
2018-04-30T12:37:19.450Z,19.40
2018-04-30T12:39:47.195Z,19.30
2018-04-30T12:42:15.892Z,19.20
2018-04-30T12:44:45.137Z,19.10
2018-04-30T12:47:16.895Z,19.00
2018-04-30T12:52:17.658Z,19.00
2018-04-30T12:58:06.443Z,18.80
2018-04-30T13:00:34.750Z,18.50
2018-04-30T13:03:02.650Z,18.50
2018-04-30T13:05:30.155Z,18.30
2018-04-30T13:07:58.466Z,17.90
2018-04-30T13:10:25.958Z,17.90
2018-04-30T13:12:53.516Z,17.80
2018-04-30T13:15:26.961Z,17.60
2018-04-30T13:17:54.406Z,17.20
2018-04-30T13:20:22.646Z,16.30
2018-04-30T13:22:50.151Z,16.30
2018-04-30T13:25:17.637Z,15.90
2018-04-30T13:27:45.102Z,15.70
2018-04-30T13:30:12.645Z,15.50
2018-04-30T13:32:40.966Z,15.40
2018-04-30T13:35:09.184Z,15.40
2018-04-30T13:37:37.454Z,15.50
2018-04-30T13:40:04.939Z,15.50
2018-04-30T13:42:32.481Z,15.70
2018-04-30T13:45:00.042Z,15.90
2018-04-30T13:47:27.525Z,16.10
2018-04-30T13:49:55.051Z,16.20
2018-04-30T13:52:22.764Z,16.40
2018-04-30T13:54:50.270Z,16.60
2018-04-30T13:57:17.742Z,16.70
2018-04-30T13:59:45.251Z,16.90
2018-04-30T14:02:12.737Z,17.10
2018-04-30T14:04:42.621Z,17.30
2018-04-30T14:07:10.335Z,17.30
2018-04-30T14:09:38.691Z,17.40
2018-04-30T14:12:06.439Z,17.60
2018-04-30T14:17:07.847Z,17.90
2018-04-30T14:22:07.153Z,18.00
2018-04-30T14:25:05.675Z,18.10
2018-04-30T14:27:37.386Z,18.20
2018-04-30T14:30:04.939Z,18.30
2018-04-30T14:35:15.452Z,18.20
2018-04-30T14:37:43.689Z,18.20
2018-04-30T14:40:12.969Z,18.20
2018-04-30T14:42:42.032Z,18.20
2018-04-30T14:45:19.671Z,18.10
2018-04-30T14:47:48.175Z,17.90
2018-04-30T14:52:48.335Z,18.00
2018-04-30T14:55:19.798Z,18.10
2018-04-30T14:57:49.533Z,18.20
2018-04-30T15:00:18.003Z,18.20
2018-04-30T15:02:45.512Z,18.30
2018-04-30T15:05:13.958Z,18.50
2018-04-30T15:07:41.441Z,18.40
2018-04-30T15:10:08.927Z,18.30
2018-04-30T15:12:36.459Z,18.20
2018-04-30T15:15:06.333Z,18.30
2018-04-30T15:17:33.882Z,18.60
2018-04-30T15:20:03.524Z,18.90
2018-04-30T15:22:32.800Z,19.10
2018-04-30T15:25:00.414Z,19.10
2018-04-30T15:27:28.666Z,18.50
2018-04-30T15:29:56.533Z,18.50
2018-04-30T15:32:25.567Z,17.90
2018-04-30T15:34:53.131Z,17.90
2018-04-30T15:37:20.693Z,17.70
2018-04-30T15:39:49.052Z,17.50
2018-04-30T15:42:16.871Z,17.50
2018-04-30T15:45:35.330Z,17.50
2018-04-30T15:48:04.757Z,17.20
2018-04-30T15:50:32.365Z,16.90
2018-04-30T15:53:00.097Z,16.60
2018-04-30T15:55:27.651Z,16.40
2018-04-30T16:00:26.847Z,16.00
2018-04-30T16:02:54.620Z,15.90
2018-04-30T16:05:27.207Z,15.70
2018-04-30T16:07:56.122Z,15.60
2018-04-30T16:10:23.852Z,15.50
2018-04-30T16:12:51.355Z,15.30
2018-04-30T16:15:19.234Z,15.30
2018-04-30T16:17:46.734Z,15.30
2018-04-30T16:20:14.549Z,15.30
2018-04-30T16:22:42.629Z,15.30
2018-04-30T16:25:10.406Z,15.30
2018-04-30T16:27:37.977Z,15.20
2018-04-30T16:30:05.710Z,15.10
2018-04-30T16:32:33.191Z,15.00
2018-04-30T16:37:34.933Z,14.80
2018-04-30T16:40:02.770Z,14.70
2018-04-30T16:42:31.843Z,14.40
2018-04-30T16:44:59.711Z,14.40
2018-04-30T16:47:28.001Z,14.40
2018-04-30T16:49:55.520Z,14.10
2018-04-30T16:52:26.443Z,13.70
2018-04-30T16:54:54.635Z,13.30
2018-04-30T16:57:23.396Z,12.70
2018-04-30T16:59:50.893Z,12.70
2018-04-30T17:02:19.221Z,12.50
2018-04-30T17:04:46.819Z,12.40
2018-04-30T17:07:15.468Z,12.20
2018-04-30T17:09:43.208Z,12.00
2018-04-30T17:12:10.747Z,11.90
2018-04-30T17:14:38.296Z,11.80
2018-04-30T17:17:06.557Z,11.70
2018-04-30T17:19:34.038Z,11.70
2018-04-30T17:22:01.531Z,11.70
2018-04-30T17:24:29.834Z,11.50
2018-04-30T17:26:58.889Z,11.60
2018-04-30T17:29:26.735Z,11.50
2018-04-30T17:31:54.274Z,11.40
2018-04-30T17:34:22.026Z,11.30
2018-04-30T17:36:49.579Z,11.30
2018-04-30T17:39:17.060Z,11.10
2018-04-30T17:44:21.511Z,11.00
2018-04-30T17:46:52.794Z,10.90
2018-04-30T17:49:20.278Z,11.00
2018-04-30T17:51:49.997Z,10.90
2018-04-30T17:54:19.163Z,10.90
2018-04-30T17:56:46.987Z,10.90
2018-04-30T17:59:14.566Z,11.00
2018-04-30T18:01:42.083Z,10.90
2018-04-30T18:04:14.612Z,11.00
2018-04-30T18:06:42.102Z,11.00
2018-04-30T18:09:09.595Z,11.00
2018-04-30T18:11:37.911Z,11.00
2018-04-30T18:14:05.406Z,11.00
2018-04-30T18:16:32.894Z,10.90
2018-04-30T18:19:00.388Z,10.90
2018-04-30T18:21:27.860Z,10.90
2018-04-30T18:24:15.298Z,10.80
2018-04-30T18:26:42.836Z,10.80
2018-04-30T18:29:10.344Z,10.90
2018-04-30T18:31:38.587Z,10.90
2018-04-30T18:34:07.407Z,10.80
2018-04-30T18:36:36.417Z,10.80
2018-04-30T18:39:03.912Z,10.80
2018-04-30T18:41:33.941Z,10.80
2018-04-30T18:44:02.724Z,10.80
2018-04-30T18:49:08.826Z,10.80
2018-04-30T18:51:37.148Z,10.80
2018-04-30T18:54:04.650Z,10.80
2018-04-30T18:56:33.653Z,10.80
2018-04-30T18:59:02.432Z,10.80
2018-04-30T19:01:31.218Z,10.80
2018-04-30T19:04:14.391Z,10.90
2018-04-30T19:06:41.882Z,10.90
2018-04-30T19:09:09.837Z,11.00
2018-04-30T19:11:37.536Z,11.00
2018-04-30T19:14:07.485Z,11.10
2018-04-30T19:16:35.754Z,11.10
2018-04-30T19:19:04.075Z,11.10
2018-04-30T19:21:32.308Z,11.10
2018-04-30T19:24:00.310Z,11.10
2018-04-30T19:26:28.055Z,11.10
2018-04-30T19:28:56.591Z,11.10
2018-04-30T19:31:24.704Z,11.10
2018-04-30T19:33:52.256Z,11.00
2018-04-30T19:36:21.980Z,11.00
2018-04-30T19:38:49.494Z,11.00
2018-04-30T19:41:17.774Z,11.00
2018-04-30T19:43:47.172Z,10.90
2018-04-30T19:46:17.491Z,10.90
2018-04-30T19:51:21.916Z,10.90
2018-04-30T19:53:49.503Z,11.00
2018-04-30T19:56:19.739Z,11.00
2018-04-30T19:58:47.301Z,11.00
2018-04-30T20:01:16.375Z,11.00
2018-04-30T20:03:43.855Z,11.00
2018-04-30T20:06:11.339Z,10.90
2018-04-30T20:08:39.128Z,10.90
2018-04-30T20:11:06.651Z,10.90
2018-04-30T20:13:34.406Z,10.80
2018-04-30T20:16:02.651Z,10.70
2018-04-30T20:18:30.141Z,10.70
2018-04-30T20:20:57.648Z,10.60
2018-04-30T20:23:25.138Z,10.60
2018-04-30T20:25:53.470Z,10.50
2018-04-30T20:28:20.941Z,10.40
2018-04-30T20:30:48.469Z,10.40
2018-04-30T20:33:15.950Z,10.40
2018-04-30T20:35:44.351Z,10.40
2018-04-30T20:38:11.853Z,10.40
2018-04-30T20:40:39.330Z,10.40
2018-04-30T20:43:06.863Z,10.40
2018-04-30T20:45:34.351Z,10.50
2018-04-30T20:48:01.831Z,10.50
2018-04-30T20:50:29.392Z,10.50
2018-04-30T20:52:56.795Z,10.50
2018-04-30T20:55:24.288Z,10.60
2018-04-30T20:57:51.947Z,10.50
2018-04-30T21:00:19.424Z,10.60
2018-04-30T21:02:46.893Z,10.60
2018-04-30T21:05:15.206Z,10.50
2018-04-30T21:07:43.451Z,10.40
2018-04-30T21:10:10.959Z,10.40
2018-04-30T21:12:38.467Z,10.30
2018-04-30T21:15:06.176Z,10.20
2018-04-30T21:17:33.763Z,10.10
2018-04-30T21:20:01.148Z,10.10
2018-04-30T21:22:29.439Z,10.00
2018-04-30T21:24:56.954Z,10.00
2018-04-30T21:27:24.456Z,9.90
2018-04-30T21:29:51.925Z,9.90
2018-04-30T21:32:19.451Z,9.80
2018-04-30T21:34:47.712Z,9.80
2018-04-30T21:39:57.104Z,9.70
2018-04-30T21:42:24.571Z,9.60
2018-04-30T21:44:52.234Z,9.60
2018-04-30T21:47:19.707Z,9.60
2018-04-30T21:49:47.203Z,9.50
2018-04-30T21:52:14.723Z,9.50
2018-04-30T21:54:42.376Z,9.50
2018-04-30T21:57:09.891Z,9.50
2018-04-30T21:59:37.392Z,9.50
2018-04-30T22:02:04.859Z,9.50
2018-04-30T22:04:32.330Z,9.50
2018-04-30T22:06:59.883Z,9.60
2018-04-30T22:09:27.368Z,9.60
2018-04-30T22:11:54.855Z,9.60
2018-04-30T22:14:22.343Z,9.60
2018-04-30T22:16:49.838Z,9.60
2018-04-30T22:19:17.323Z,9.60
2018-04-30T22:21:45.608Z,9.60
2018-04-30T22:24:13.122Z,9.60
2018-04-30T22:26:40.647Z,9.60
2018-04-30T22:29:08.906Z,9.50
2018-04-30T22:31:36.383Z,9.50
2018-04-30T22:34:03.881Z,9.60
2018-04-30T22:36:31.539Z,9.50
2018-04-30T22:38:59.021Z,9.50
2018-04-30T22:41:26.515Z,9.50
2018-04-30T22:46:36.015Z,9.50
2018-04-30T22:49:03.500Z,9.50
2018-04-30T22:51:30.970Z,9.50
2018-04-30T22:53:58.450Z,9.50
2018-04-30T22:56:25.928Z,9.50
2018-04-30T22:58:53.784Z,9.50
2018-04-30T23:01:21.316Z,9.40
2018-04-30T23:03:48.782Z,9.50
2018-04-30T23:06:16.318Z,9.50
2018-04-30T23:08:43.789Z,9.50
2018-04-30T23:11:11.296Z,9.50
2018-04-30T23:13:38.875Z,9.60
2018-04-30T23:16:07.276Z,9.60
2018-04-30T23:18:34.828Z,9.60
2018-04-30T23:21:02.296Z,9.60
2018-04-30T23:23:29.774Z,9.60
2018-04-30T23:25:57.287Z,9.60
2018-04-30T23:28:24.771Z,9.60
2018-04-30T23:30:52.244Z,9.60
2018-04-30T23:33:19.715Z,9.60
2018-04-30T23:35:47.235Z,9.70
2018-04-30T23:38:14.790Z,9.70
2018-04-30T23:40:42.270Z,9.70
2018-04-30T23:43:09.770Z,9.70
2018-04-30T23:45:37.268Z,9.70
2018-04-30T23:48:04.741Z,9.60
2018-04-30T23:50:32.239Z,9.70
2018-04-30T23:52:59.744Z,9.60
2018-04-30T23:55:27.404Z,9.60
2018-04-30T23:57:54.903Z,9.60
